sensor_id;sensor_type;location;lat;lon;timestamp;pressure;altitude;pressure_sealevel;temperature;humidity
32298;BME280;18782;48.984;8.548;2023-02-04T00:00:19;101374.00;;;7.72;100.00
32298;BME280;18782;48.984;8.548;2023-02-04T00:02:49;101378.25;;;7.71;100.00
32298;BME280;18782;48.984;8.548;2023-02-04T00:05:17;101382.69;;;7.74;100.00
32298;BME280;18782;48.984;8.548;2023-02-04T00:07:45;101382.78;;;7.75;100.00
32298;BME280;18782;48.984;8.548;2023-02-04T00:10:13;101388.63;;;7.73;100.00
32298;BME280;18782;48.984;8.548;2023-02-04T00:12:40;101387.91;;;7.75;100.00
32298;BME280;18782;48.984;8.548;2023-02-04T00:15:08;101380.13;;;7.74;100.00
32298;BME280;18782;48.984;8.548;2023-02-04T00:17:36;101390.75;;;7.80;100.00
32298;BME280;18782;48.984;8.548;2023-02-04T00:20:06;101377.72;;;7.77;100.00
32298;BME280;18782;48.984;8.548;2023-02-04T00:22:34;101379.53;;;7.78;100.00
32298;BME280;18782;48.984;8.548;2023-02-04T00:25:02;101384.25;;;7.72;100.00
32298;BME280;18782;48.984;8.548;2023-02-04T00:27:29;101397.28;;;7.75;100.00
32298;BME280;18782;48.984;8.548;2023-02-04T00:29:57;101396.81;;;7.67;100.00
32298;BME280;18782;48.984;8.548;2023-02-04T00:32:25;101393.28;;;7.65;100.00
32298;BME280;18782;48.984;8.548;2023-02-04T00:34:53;101407.78;;;7.65;100.00
32298;BME280;18782;48.984;8.548;2023-02-04T00:37:22;101404.25;;;7.63;100.00
32298;BME280;18782;48.984;8.548;2023-02-04T00:39:50;101401.69;;;7.63;100.00
32298;BME280;18782;48.984;8.548;2023-02-04T00:42:17;101393.81;;;7.59;100.00
32298;BME280;18782;48.984;8.548;2023-02-04T00:44:45;101380.78;;;7.56;100.00
32298;BME280;18782;48.984;8.548;2023-02-04T00:47:12;101390.28;;;7.57;100.00
32298;BME280;18782;48.984;8.548;2023-02-04T00:49:40;101386.13;;;7.59;100.00
32298;BME280;18782;48.984;8.548;2023-02-04T00:52:08;101383.75;;;7.63;100.00
32298;BME280;18782;48.984;8.548;2023-02-04T00:54:37;101397.34;;;7.62;100.00
32298;BME280;18782;48.984;8.548;2023-02-04T00:57:04;101394.97;;;7.65;100.00
32298;BME280;18782;48.984;8.548;2023-02-04T00:59:32;101405.41;;;7.68;100.00
32298;BME280;18782;48.984;8.548;2023-02-04T01:02:01;101392.75;;;7.71;100.00
32298;BME280;18782;48.984;8.548;2023-02-04T01:04:28;101392.59;;;7.68;100.00
32298;BME280;18782;48.984;8.548;2023-02-04T01:06:56;101397.09;;;7.72;100.00
32298;BME280;18782;48.984;8.548;2023-02-04T01:09:23;101406.56;;;7.73;100.00
32298;BME280;18782;48.984;8.548;2023-02-04T01:11:53;101399.66;;;7.72;100.00
32298;BME280;18782;48.984;8.548;2023-02-04T01:14:20;101402.13;;;7.70;100.00
32298;BME280;18782;48.984;8.548;2023-02-04T01:16:48;101400.44;;;7.71;100.00
32298;BME280;18782;48.984;8.548;2023-02-04T01:19:15;101393.63;;;7.71;100.00
32298;BME280;18782;48.984;8.548;2023-02-04T01:21:43;101391.94;;;7.72;100.00
32298;BME280;18782;48.984;8.548;2023-02-04T01:24:11;101393.56;;;7.70;100.00
32298;BME280;18782;48.984;8.548;2023-02-04T01:26:59;101400.81;;;7.77;100.00
32298;BME280;18782;48.984;8.548;2023-02-04T01:29:26;101404.72;;;7.85;100.00
32298;BME280;18782;48.984;8.548;2023-02-04T01:31:54;101410.28;;;7.78;100.00
32298;BME280;18782;48.984;8.548;2023-02-04T01:34:22;101408.31;;;7.74;100.00
32298;BME280;18782;48.984;8.548;2023-02-04T01:36:51;101412.03;;;7.79;100.00
32298;BME280;18782;48.984;8.548;2023-02-04T01:39:18;101409.81;;;7.70;100.00
32298;BME280;18782;48.984;8.548;2023-02-04T01:41:46;101418.47;;;7.72;100.00
32298;BME280;18782;48.984;8.548;2023-02-04T01:44:15;101423.16;;;7.65;100.00
32298;BME280;18782;48.984;8.548;2023-02-04T01:46:43;101415.66;;;7.68;100.00
32298;BME280;18782;48.984;8.548;2023-02-04T01:49:10;101418.22;;;7.68;100.00
32298;BME280;18782;48.984;8.548;2023-02-04T01:51:38;101409.75;;;7.69;100.00
32298;BME280;18782;48.984;8.548;2023-02-04T01:54:09;101418.38;;;7.71;100.00
32298;BME280;18782;48.984;8.548;2023-02-04T01:56:38;101413.97;;;7.68;100.00
32298;BME280;18782;48.984;8.548;2023-02-04T01:59:10;101412.28;;;7.69;100.00
32298;BME280;18782;48.984;8.548;2023-02-04T02:01:41;101409.91;;;7.72;100.00
32298;BME280;18782;48.984;8.548;2023-02-04T02:04:11;101416.03;;;7.74;100.00
32298;BME280;18782;48.984;8.548;2023-02-04T02:06:42;101415.03;;;7.72;100.00
32298;BME280;18782;48.984;8.548;2023-02-04T02:09:11;101415.22;;;7.75;100.00
32298;BME280;18782;48.984;8.548;2023-02-04T02:11:39;101420.16;;;7.72;100.00
32298;BME280;18782;48.984;8.548;2023-02-04T02:14:07;101422.91;;;7.75;100.00
32298;BME280;18782;48.984;8.548;2023-02-04T02:16:37;101427.44;;;7.79;100.00
32298;BME280;18782;48.984;8.548;2023-02-04T02:19:09;101439.25;;;7.77;100.00
32298;BME280;18782;48.984;8.548;2023-02-04T02:21:43;101447.75;;;7.76;100.00
32298;BME280;18782;48.984;8.548;2023-02-04T02:24:25;101444.38;;;7.77;100.00
32298;BME280;18782;48.984;8.548;2023-02-04T02:26:55;101449.69;;;7.80;100.00
32298;BME280;18782;48.984;8.548;2023-02-04T02:29:24;101450.38;;;7.77;100.00
32298;BME280;18782;48.984;8.548;2023-02-04T02:31:53;101451.31;;;7.78;100.00
32298;BME280;18782;48.984;8.548;2023-02-04T02:34:25;101449.69;;;7.80;100.00
32298;BME280;18782;48.984;8.548;2023-02-04T02:36:54;101454.63;;;7.77;100.00
32298;BME280;18782;48.984;8.548;2023-02-04T02:39:24;101439.88;;;7.73;100.00
32298;BME280;18782;48.984;8.548;2023-02-04T02:41:52;101443.47;;;7.62;100.00
32298;BME280;18782;48.984;8.548;2023-02-04T02:44:20;101443.28;;;7.58;100.00
32298;BME280;18782;48.984;8.548;2023-02-04T02:46:49;101445.66;;;7.55;100.00
32298;BME280;18782;48.984;8.548;2023-02-04T02:49:18;101448.22;;;7.55;100.00
32298;BME280;18782;48.984;8.548;2023-02-04T02:51:47;101443.09;;;7.55;100.00
32298;BME280;18782;48.984;8.548;2023-02-04T02:54:19;101454.94;;;7.53;100.00
32298;BME280;18782;48.984;8.548;2023-02-04T02:56:50;101455.91;;;7.55;100.00
32298;BME280;18782;48.984;8.548;2023-02-04T02:59:20;101453.34;;;7.55;100.00
32298;BME280;18782;48.984;8.548;2023-02-04T03:01:51;101456.19;;;7.60;100.00
32298;BME280;18782;48.984;8.548;2023-02-04T03:04:21;101453.91;;;7.65;100.00
32298;BME280;18782;48.984;8.548;2023-02-04T03:06:50;101457.09;;;7.75;100.00
32298;BME280;18782;48.984;8.548;2023-02-04T03:09:18;101460.41;;;7.73;100.00
32298;BME280;18782;48.984;8.548;2023-02-04T03:11:46;101456.03;;;7.72;100.00
32298;BME280;18782;48.984;8.548;2023-02-04T03:14:16;101464.53;;;7.71;100.00
32298;BME280;18782;48.984;8.548;2023-02-04T03:16:45;101464.53;;;7.71;100.00
32298;BME280;18782;48.984;8.548;2023-02-04T03:19:13;101473.00;;;7.70;100.00
32298;BME280;18782;48.984;8.548;2023-02-04T03:21:42;101469.84;;;7.74;100.00
32298;BME280;18782;48.984;8.548;2023-02-04T03:24:10;101473.22;;;7.73;100.00
32298;BME280;18782;48.984;8.548;2023-02-04T03:26:38;101468.75;;;7.70;100.00
32298;BME280;18782;48.984;8.548;2023-02-04T03:29:07;101478.50;;;7.76;100.00
32298;BME280;18782;48.984;8.548;2023-02-04T03:31:37;101480.25;;;7.77;100.00
32298;BME280;18782;48.984;8.548;2023-02-04T03:34:04;101483.09;;;7.81;100.00
32298;BME280;18782;48.984;8.548;2023-02-04T03:36:32;101488.16;;;7.80;100.00
32298;BME280;18782;48.984;8.548;2023-02-04T03:39:00;101498.91;;;7.74;100.00
32298;BME280;18782;48.984;8.548;2023-02-04T03:41:28;101497.44;;;7.78;100.00
32298;BME280;18782;48.984;8.548;2023-02-04T03:43:56;101501.41;;;7.73;100.00
32298;BME280;18782;48.984;8.548;2023-02-04T03:46:24;101513.81;;;7.67;100.00
32298;BME280;18782;48.984;8.548;2023-02-04T03:48:54;101518.19;;;7.68;100.00
32298;BME280;18782;48.984;8.548;2023-02-04T03:51:21;101515.22;;;7.62;100.00
32298;BME280;18782;48.984;8.548;2023-02-04T03:53:49;101521.56;;;7.53;100.00
32298;BME280;18782;48.984;8.548;2023-02-04T03:56:17;101524.13;;;7.53;100.00
32298;BME280;18782;48.984;8.548;2023-02-04T03:58:44;101528.25;;;7.51;100.00
32298;BME280;18782;48.984;8.548;2023-02-04T04:01:12;101527.50;;;7.52;100.00
32298;BME280;18782;48.984;8.548;2023-02-04T04:03:39;101531.63;;;7.50;100.00
32298;BME280;18782;48.984;8.548;2023-02-04T04:06:08;101522.06;;;7.48;100.00
32298;BME280;18782;48.984;8.548;2023-02-04T04:08:36;101526.13;;;7.44;100.00
32298;BME280;18782;48.984;8.548;2023-02-04T04:11:04;101529.47;;;7.43;100.00
32298;BME280;18782;48.984;8.548;2023-02-04T04:13:32;101537.06;;;7.42;100.00
32298;BME280;18782;48.984;8.548;2023-02-04T04:15:59;101535.41;;;7.42;100.00
32298;BME280;18782;48.984;8.548;2023-02-04T04:18:28;101531.75;;;7.39;100.00
32298;BME280;18782;48.984;8.548;2023-02-04T04:20:56;101539.50;;;7.40;100.00
32298;BME280;18782;48.984;8.548;2023-02-04T04:23:25;101540.53;;;7.42;100.00
32298;BME280;18782;48.984;8.548;2023-02-04T04:25:52;101536.44;;;7.46;100.00
32298;BME280;18782;48.984;8.548;2023-02-04T04:28:20;101531.84;;;7.40;100.00
32298;BME280;18782;48.984;8.548;2023-02-04T04:30:47;101533.84;;;7.31;100.00
32298;BME280;18782;48.984;8.548;2023-02-04T04:33:15;101532.03;;;7.30;100.00
32298;BME280;18782;48.984;8.548;2023-02-04T04:35:43;101531.88;;;7.27;100.00
32298;BME280;18782;48.984;8.548;2023-02-04T04:38:10;101538.75;;;7.28;100.00
32298;BME280;18782;48.984;8.548;2023-02-04T04:40:39;101543.00;;;7.27;100.00
32298;BME280;18782;48.984;8.548;2023-02-04T04:43:07;101548.22;;;7.29;100.00
32298;BME280;18782;48.984;8.548;2023-02-04T04:45:34;101544.69;;;7.27;100.00
32298;BME280;18782;48.984;8.548;2023-02-04T04:48:02;101552.34;;;7.27;100.00
32298;BME280;18782;48.984;8.548;2023-02-04T04:50:30;101551.78;;;7.31;100.00
32298;BME280;18782;48.984;8.548;2023-02-04T04:52:58;101542.28;;;7.30;100.00
32298;BME280;18782;48.984;8.548;2023-02-04T04:55:26;101533.25;;;7.22;100.00
32298;BME280;18782;48.984;8.548;2023-02-04T04:57:55;101544.47;;;7.24;100.00
32298;BME280;18782;48.984;8.548;2023-02-04T05:00:23;101547.03;;;7.24;100.00
32298;BME280;18782;48.984;8.548;2023-02-04T05:02:50;101539.94;;;7.20;100.00
32298;BME280;18782;48.984;8.548;2023-02-04T05:05:18;101552.94;;;7.23;100.00
32298;BME280;18782;48.984;8.548;2023-02-04T05:07:45;101540.94;;;7.22;100.00
32298;BME280;18782;48.984;8.548;2023-02-04T05:10:13;101539.94;;;7.20;100.00
32298;BME280;18782;48.984;8.548;2023-02-04T05:12:41;101541.72;;;7.21;100.00
32298;BME280;18782;48.984;8.548;2023-02-04T05:15:10;101544.19;;;7.19;100.00
32298;BME280;18782;48.984;8.548;2023-02-04T05:17:38;101550.19;;;7.20;100.00
32298;BME280;18782;48.984;8.548;2023-02-04T05:20:06;101569.78;;;7.19;100.00
32298;BME280;18782;48.984;8.548;2023-02-04T05:22:34;101566.56;;;7.22;100.00
32298;BME280;18782;48.984;8.548;2023-02-04T05:25:02;101568.91;;;7.19;100.00
32298;BME280;18782;48.984;8.548;2023-02-04T05:27:29;101575.78;;;7.20;100.00
32298;BME280;18782;48.984;8.548;2023-02-04T05:29:57;101568.72;;;7.16;100.00
32298;BME280;18782;48.984;8.548;2023-02-04T05:32:26;101572.34;;;7.19;100.00
32298;BME280;18782;48.984;8.548;2023-02-04T05:34:54;101570.66;;;7.20;100.00
32298;BME280;18782;48.984;8.548;2023-02-04T05:37:21;101566.56;;;7.22;100.00
32298;BME280;18782;48.984;8.548;2023-02-04T05:39:49;101575.78;;;7.20;100.00
32298;BME280;18782;48.984;8.548;2023-02-04T05:42:16;101584.28;;;7.19;100.00
32298;BME280;18782;48.984;8.548;2023-02-04T05:44:44;101571.38;;;7.17;100.00
32298;BME280;18782;48.984;8.548;2023-02-04T05:47:12;101563.59;;;7.16;100.00
32298;BME280;18782;48.984;8.548;2023-02-04T05:49:41;101573.84;;;7.16;100.00
32298;BME280;18782;48.984;8.548;2023-02-04T05:52:08;101580.53;;;7.14;100.00
32298;BME280;18782;48.984;8.548;2023-02-04T05:54:36;101584.09;;;7.16;100.00
32298;BME280;18782;48.984;8.548;2023-02-04T05:57:03;101585.78;;;7.15;100.00
32298;BME280;18782;48.984;8.548;2023-02-04T05:59:31;101592.53;;;7.15;100.00
32298;BME280;18782;48.984;8.548;2023-02-04T06:01:59;101604.44;;;7.14;100.00
32298;BME280;18782;48.984;8.548;2023-02-04T06:04:26;101598.44;;;7.14;100.00
32298;BME280;18782;48.984;8.548;2023-02-04T06:06:55;101602.69;;;7.13;100.00
32298;BME280;18782;48.984;8.548;2023-02-04T06:09:23;101611.25;;;7.14;100.00
32298;BME280;18782;48.984;8.548;2023-02-04T06:11:51;101617.25;;;7.14;100.00
32298;BME280;18782;48.984;8.548;2023-02-04T06:14:18;101619.72;;;7.13;100.00
32298;BME280;18782;48.984;8.548;2023-02-04T06:16:46;101621.31;;;7.11;100.00
32298;BME280;18782;48.984;8.548;2023-02-04T06:19:13;101617.75;;;7.09;100.00
32298;BME280;18782;48.984;8.548;2023-02-04T06:21:41;101628.00;;;7.09;100.00
32298;BME280;18782;48.984;8.548;2023-02-04T06:24:10;101623.38;;;7.03;100.00
32298;BME280;18782;48.984;8.548;2023-02-04T06:26:37;101632.50;;;6.99;100.00
32298;BME280;18782;48.984;8.548;2023-02-04T06:29:05;101627.59;;;7.02;100.00
32298;BME280;18782;48.984;8.548;2023-02-04T06:31:33;101636.06;;;7.01;100.00
32298;BME280;18782;48.984;8.548;2023-02-04T06:34:03;101639.44;;;7.00;100.00
32298;BME280;18782;48.984;8.548;2023-02-04T06:36:30;101640.19;;;6.99;100.00
32298;BME280;18782;48.984;8.548;2023-02-04T06:38:58;101639.22;;;6.97;100.00
32298;BME280;18782;48.984;8.548;2023-02-04T06:41:27;101647.88;;;6.99;100.00
32298;BME280;18782;48.984;8.548;2023-02-04T06:43:54;101651.22;;;6.98;100.00
32298;BME280;18782;48.984;8.548;2023-02-04T06:46:22;101653.00;;;6.99;100.00
32298;BME280;18782;48.984;8.548;2023-02-04T06:48:50;101653.00;;;6.99;100.00
32298;BME280;18782;48.984;8.548;2023-02-04T06:51:17;101658.09;;;6.99;100.00
32298;BME280;18782;48.984;8.548;2023-02-04T06:53:45;101655.47;;;6.98;100.00
32298;BME280;18782;48.984;8.548;2023-02-04T06:56:13;101658.31;;;7.02;100.00
32298;BME280;18782;48.984;8.548;2023-02-04T06:58:41;101662.66;;;7.03;100.00
32298;BME280;18782;48.984;8.548;2023-02-04T07:01:09;101655.69;;;7.01;100.00
32298;BME280;18782;48.984;8.548;2023-02-04T07:03:37;101670.94;;;7.13;100.00
32298;BME280;18782;48.984;8.548;2023-02-04T07:06:04;101668.41;;;7.26;100.00
32298;BME280;18782;48.984;8.548;2023-02-04T07:08:32;101659.13;;;7.15;100.00
32298;BME280;18782;48.984;8.548;2023-02-04T07:11:00;101671.44;;;7.20;100.00
32298;BME280;18782;48.984;8.548;2023-02-04T07:13:27;101672.63;;;7.25;100.00
32298;BME280;18782;48.984;8.548;2023-02-04T07:15:56;101676.47;;;7.19;100.00
32298;BME280;18782;48.984;8.548;2023-02-04T07:18:24;101677.03;;;7.15;100.00
32298;BME280;18782;48.984;8.548;2023-02-04T07:20:51;101676.06;;;7.13;100.00
32298;BME280;18782;48.984;8.548;2023-02-04T07:23:19;101686.59;;;7.04;100.00
32298;BME280;18782;48.984;8.548;2023-02-04T07:25:46;101695.75;;;7.00;100.00
32298;BME280;18782;48.984;8.548;2023-02-04T07:28:14;101698.88;;;6.96;100.00
32298;BME280;18782;48.984;8.548;2023-02-04T07:30:42;101695.13;;;6.91;100.00
32298;BME280;18782;48.984;8.548;2023-02-04T07:33:11;101705.94;;;6.87;100.00
32298;BME280;18782;48.984;8.548;2023-02-04T07:35:38;101705.16;;;6.88;100.00
32298;BME280;18782;48.984;8.548;2023-02-04T07:38:06;101709.59;;;6.91;100.00
32298;BME280;18782;48.984;8.548;2023-02-04T07:40:34;101704.50;;;6.91;100.00
32298;BME280;18782;48.984;8.548;2023-02-04T07:43:02;101719.03;;;7.17;100.00
32298;BME280;18782;48.984;8.548;2023-02-04T07:45:31;101713.91;;;7.96;100.00
32298;BME280;18782;48.984;8.548;2023-02-04T07:47:59;101717.09;;;8.47;100.00
32298;BME280;18782;48.984;8.548;2023-02-04T07:50:28;101717.69;;;8.71;100.00
32298;BME280;18782;48.984;8.548;2023-02-04T07:52:56;101724.84;;;8.61;99.83
32298;BME280;18782;48.984;8.548;2023-02-04T07:55:24;101725.31;;;8.41;97.65
32298;BME280;18782;48.984;8.548;2023-02-04T07:57:52;101728.88;;;8.17;97.72
32298;BME280;18782;48.984;8.548;2023-02-04T08:00:20;101731.88;;;8.09;98.38
32298;BME280;18782;48.984;8.548;2023-02-04T08:02:48;101734.66;;;7.99;98.57
32298;BME280;18782;48.984;8.548;2023-02-04T08:05:15;101742.72;;;7.92;99.11
32298;BME280;18782;48.984;8.548;2023-02-04T08:07:44;101742.91;;;7.82;100.00
32298;BME280;18782;48.984;8.548;2023-02-04T08:10:13;101745.47;;;7.82;100.00
32298;BME280;18782;48.984;8.548;2023-02-04T08:12:40;101759.88;;;7.80;100.00
32298;BME280;18782;48.984;8.548;2023-02-04T08:15:08;101773.91;;;7.85;100.00
32298;BME280;18782;48.984;8.548;2023-02-04T08:17:36;101762.16;;;7.89;100.00
32298;BME280;18782;48.984;8.548;2023-02-04T08:20:04;101750.22;;;7.89;100.00
32298;BME280;18782;48.984;8.548;2023-02-04T08:22:31;101761.47;;;7.91;99.63
32298;BME280;18782;48.984;8.548;2023-02-04T08:25:02;101772.31;;;7.87;100.00
32298;BME280;18782;48.984;8.548;2023-02-04T08:27:30;101767.97;;;7.86;100.00
32298;BME280;18782;48.984;8.548;2023-02-04T08:29:58;101763.81;;;7.88;100.00
32298;BME280;18782;48.984;8.548;2023-02-04T08:32:25;101761.47;;;7.91;99.77
32298;BME280;18782;48.984;8.548;2023-02-04T08:34:54;101773.00;;;7.98;99.58
32298;BME280;18782;48.984;8.548;2023-02-04T08:37:22;101771.31;;;7.98;98.54
32298;BME280;18782;48.984;8.548;2023-02-04T08:39:50;101774.97;;;8.15;99.08
32298;BME280;18782;48.984;8.548;2023-02-04T08:42:19;101775.72;;;8.27;98.00
32298;BME280;18782;48.984;8.548;2023-02-04T08:44:46;101779.38;;;8.44;98.44
32298;BME280;18782;48.984;8.548;2023-02-04T08:47:14;101789.91;;;8.62;98.53
32298;BME280;18782;48.984;8.548;2023-02-04T08:49:41;101783.75;;;8.73;97.27
32298;BME280;18782;48.984;8.548;2023-02-04T08:52:09;101785.09;;;8.81;96.21
32298;BME280;18782;48.984;8.548;2023-02-04T08:54:37;101794.66;;;8.84;95.43
32298;BME280;18782;48.984;8.548;2023-02-04T08:57:04;101787.94;;;8.86;95.13
32298;BME280;18782;48.984;8.548;2023-02-04T08:59:33;101793.66;;;8.82;94.30
32298;BME280;18782;48.984;8.548;2023-02-04T09:02:01;101799.44;;;8.78;93.84
32298;BME280;18782;48.984;8.548;2023-02-04T09:04:29;101804.00;;;8.69;94.84
32298;BME280;18782;48.984;8.548;2023-02-04T09:06:56;101799.66;;;8.68;94.59
32298;BME280;18782;48.984;8.548;2023-02-04T09:09:24;101801.22;;;8.66;95.02
32298;BME280;18782;48.984;8.548;2023-02-04T09:11:52;101810.53;;;8.63;94.34
32298;BME280;18782;48.984;8.548;2023-02-04T09:14:19;101815.88;;;8.67;90.81
32298;BME280;18782;48.984;8.548;2023-02-04T09:16:48;101821.22;;;8.56;88.58
32298;BME280;18782;48.984;8.548;2023-02-04T09:19:16;101825.72;;;8.60;90.81
32298;BME280;18782;48.984;8.548;2023-02-04T09:21:49;101819.97;;;8.78;92.31
32298;BME280;18782;48.984;8.548;2023-02-04T09:24:17;101816.94;;;8.98;91.72
32298;BME280;18782;48.984;8.548;2023-02-04T09:26:44;101818.56;;;9.11;90.04
32298;BME280;18782;48.984;8.548;2023-02-04T09:29:12;101815.47;;;9.17;88.84
32298;BME280;18782;48.984;8.548;2023-02-04T09:31:39;101822.06;;;9.26;88.81
32298;BME280;18782;48.984;8.548;2023-02-04T09:34:08;101825.84;;;9.33;87.61
32298;BME280;18782;48.984;8.548;2023-02-04T09:36:36;101827.03;;;9.38;87.14
32298;BME280;18782;48.984;8.548;2023-02-04T09:39:04;101837.38;;;9.39;87.22
32298;BME280;18782;48.984;8.548;2023-02-04T09:41:33;101827.56;;;9.47;86.18
32298;BME280;18782;48.984;8.548;2023-02-04T09:44:03;101838.75;;;9.77;85.35
32298;BME280;18782;48.984;8.548;2023-02-04T09:46:31;101843.72;;;10.04;83.29
32298;BME280;18782;48.984;8.548;2023-02-04T09:48:59;101835.16;;;10.19;83.38
32298;BME280;18782;48.984;8.548;2023-02-04T09:51:32;101836.59;;;10.29;82.89
32298;BME280;18782;48.984;8.548;2023-02-04T09:54:04;101833.84;;;10.26;79.35
32298;BME280;18782;48.984;8.548;2023-02-04T09:56:35;101844.22;;;10.28;78.62
32298;BME280;18782;48.984;8.548;2023-02-04T09:59:03;101845.75;;;10.55;88.36
32298;BME280;18782;48.984;8.548;2023-02-04T10:01:31;101841.78;;;10.93;86.91
32298;BME280;18782;48.984;8.548;2023-02-04T10:04:00;101849.03;;;11.00;80.43
32298;BME280;18782;48.984;8.548;2023-02-04T10:06:30;101838.88;;;10.87;77.68
32298;BME280;18782;48.984;8.548;2023-02-04T10:08:58;101844.72;;;10.68;77.00
32298;BME280;18782;48.984;8.548;2023-02-04T10:11:26;101849.47;;;10.60;76.23
32298;BME280;18782;48.984;8.548;2023-02-04T10:13:57;101855.88;;;10.52;76.82
32298;BME280;18782;48.984;8.548;2023-02-04T10:16:27;101845.75;;;10.55;75.04
32298;BME280;18782;48.984;8.548;2023-02-04T10:18:56;101852.06;;;10.60;75.10
32298;BME280;18782;48.984;8.548;2023-02-04T10:21:26;101838.38;;;10.78;76.46
32298;BME280;18782;48.984;8.548;2023-02-04T10:23:57;101853.22;;;10.82;74.41
32298;BME280;18782;48.984;8.548;2023-02-04T10:26:26;101859.66;;;10.90;72.70
32298;BME280;18782;48.984;8.548;2023-02-04T10:28:59;101862.31;;;10.91;75.55
32298;BME280;18782;48.984;8.548;2023-02-04T10:31:29;101859.09;;;11.28;81.27
32298;BME280;18782;48.984;8.548;2023-02-04T10:34:06;101868.69;;;11.31;75.01
32298;BME280;18782;48.984;8.548;2023-02-04T10:36:36;101861.22;;;11.53;72.96
32298;BME280;18782;48.984;8.548;2023-02-04T10:39:10;101860.72;;;11.76;70.71
32298;BME280;18782;48.984;8.548;2023-02-04T10:41:44;101859.97;;;11.79;69.47
32298;BME280;18782;48.984;8.548;2023-02-04T10:44:16;101855.06;;;11.84;68.40
32298;BME280;18782;48.984;8.548;2023-02-04T10:46:44;101851.91;;;11.55;69.51
32298;BME280;18782;48.984;8.548;2023-02-04T10:49:19;101850.47;;;11.44;69.20
32298;BME280;18782;48.984;8.548;2023-02-04T10:51:48;101853.31;;;11.66;68.04
32298;BME280;18782;48.984;8.548;2023-02-04T10:54:19;101850.69;;;11.65;68.92
32298;BME280;18782;48.984;8.548;2023-02-04T10:56:58;101846.88;;;11.74;67.95
32298;BME280;18782;48.984;8.548;2023-02-04T10:59:26;101854.41;;;11.88;65.37
32298;BME280;18782;48.984;8.548;2023-02-04T11:01:55;101859.19;;;11.80;64.54
32298;BME280;18782;48.984;8.548;2023-02-04T11:04:24;101851.19;;;11.92;67.88
32298;BME280;18782;48.984;8.548;2023-02-04T11:06:54;101850.53;;;11.96;65.77
32298;BME280;18782;48.984;8.548;2023-02-04T11:09:23;101856.06;;;11.86;66.02
32298;BME280;18782;48.984;8.548;2023-02-04T11:11:50;101852.16;;;11.77;64.55
32298;BME280;18782;48.984;8.548;2023-02-04T11:14:24;101848.88;;;11.80;65.01
32298;BME280;18782;48.984;8.548;2023-02-04T11:16:54;101846.53;;;11.68;68.12
32298;BME280;18782;48.984;8.548;2023-02-04T11:19:34;101848.38;;;11.87;66.09
32298;BME280;18782;48.984;8.548;2023-02-04T11:22:17;101850.53;;;11.80;66.43
32298;BME280;18782;48.984;8.548;2023-02-04T11:24:47;101853.16;;;11.63;66.12
32298;BME280;18782;48.984;8.548;2023-02-04T11:27:21;101854.63;;;11.58;65.87
32298;BME280;18782;48.984;8.548;2023-02-04T11:29:50;101854.16;;;11.49;64.66
32298;BME280;18782;48.984;8.548;2023-02-04T11:32:32;101858.06;;;11.24;66.59
32298;BME280;18782;48.984;8.548;2023-02-04T11:35:07;101857.56;;;11.32;67.19
32298;BME280;18782;48.984;8.548;2023-02-04T11:37:43;101853.53;;;11.20;65.47
32298;BME280;18782;48.984;8.548;2023-02-04T11:40:22;101851.28;;;10.94;67.41
32298;BME280;18782;48.984;8.548;2023-02-04T11:42:56;101857.88;;;11.21;78.90
32298;BME280;18782;48.984;8.548;2023-02-04T11:45:28;101842.41;;;10.89;69.60
32298;BME280;18782;48.984;8.548;2023-02-04T11:47:58;101844.19;;;10.90;70.57
32298;BME280;18782;48.984;8.548;2023-02-04T11:50:29;101849.34;;;10.90;69.75
32298;BME280;18782;48.984;8.548;2023-02-04T11:52:58;101849.25;;;10.88;69.59
32298;BME280;18782;48.984;8.548;2023-02-04T11:55:29;101845.81;;;10.88;70.96
32298;BME280;18782;48.984;8.548;2023-02-04T11:57:57;101845.31;;;11.11;69.25
32298;BME280;18782;48.984;8.548;2023-02-04T12:00:28;101852.53;;;11.51;66.92
32298;BME280;18782;48.984;8.548;2023-02-04T12:02:58;101851.47;;;11.98;66.52
32298;BME280;18782;48.984;8.548;2023-02-04T12:05:37;101842.50;;;12.63;62.58
32298;BME280;18782;48.984;8.548;2023-02-04T12:08:10;101846.50;;;12.93;56.82
32298;BME280;18782;48.984;8.548;2023-02-04T12:10:46;101846.19;;;12.48;56.55
32298;BME280;18782;48.984;8.548;2023-02-04T12:13:16;101836.91;;;12.16;57.37
32298;BME280;18782;48.984;8.548;2023-02-04T12:15:53;101832.63;;;12.17;58.93
32298;BME280;18782;48.984;8.548;2023-02-04T12:18:22;101830.41;;;12.24;58.60
32298;BME280;18782;48.984;8.548;2023-02-04T12:20:49;101823.81;;;12.68;58.78
32298;BME280;18782;48.984;8.548;2023-02-04T12:23:17;101827.59;;;12.94;54.91
32298;BME280;18782;48.984;8.548;2023-02-04T12:25:46;101831.84;;;13.52;57.27
32298;BME280;18782;48.984;8.548;2023-02-04T12:28:14;101835.44;;;13.96;52.90
32298;BME280;18782;48.984;8.548;2023-02-04T12:30:42;101838.97;;;14.41;51.36
32298;BME280;18782;48.984;8.548;2023-02-04T12:33:09;101834.00;;;14.68;51.10
32298;BME280;18782;48.984;8.548;2023-02-04T12:35:40;101843.63;;;14.95;47.40
32298;BME280;18782;48.984;8.548;2023-02-04T12:38:08;101840.06;;;14.69;47.44
32298;BME280;18782;48.984;8.548;2023-02-04T12:40:36;101834.16;;;14.07;47.66
32298;BME280;18782;48.984;8.548;2023-02-04T12:43:05;101833.78;;;13.98;48.12
32298;BME280;18782;48.984;8.548;2023-02-04T12:45:33;101836.31;;;13.96;48.75
32298;BME280;18782;48.984;8.548;2023-02-04T12:48:00;101839.03;;;13.57;49.23
32298;BME280;18782;48.984;8.548;2023-02-04T12:50:28;101835.84;;;13.44;51.65
32298;BME280;18782;48.984;8.548;2023-02-04T12:52:58;101832.41;;;13.64;51.52
32298;BME280;18782;48.984;8.548;2023-02-04T12:55:27;101833.19;;;13.42;52.34
32298;BME280;18782;48.984;8.548;2023-02-04T12:57:55;101831.03;;;13.32;54.74